createdAt,value
2022-11-21T00:01:58.803Z,99825.66
2022-11-21T00:07:20.617Z,99813.59
2022-11-21T00:12:42.545Z,99823.78
2022-11-21T00:18:04.657Z,99827.25
2022-11-21T00:23:26.399Z,99824.00
2022-11-21T00:28:48.142Z,99814.81
2022-11-21T00:34:09.954Z,99817.38
2022-11-21T00:39:31.836Z,99823.44
2022-11-21T00:44:53.578Z,99819.25
2022-11-21T00:50:15.383Z,99806.69
2022-11-21T00:55:37.143Z,99814.28
2022-11-21T01:01:05.055Z,99799.81
2022-11-21T01:06:26.935Z,99786.28
2022-11-21T01:11:48.710Z,99781.19
2022-11-21T01:17:10.580Z,99781.03
2022-11-21T01:22:32.827Z,99774.19
2022-11-21T01:27:54.629Z,99753.72
2022-11-21T01:33:16.385Z,99772.94
2022-11-21T01:38:40.065Z,99774.59
2022-11-21T01:44:23.150Z,99762.66
2022-11-21T01:49:46.909Z,99749.03
2022-11-21T01:55:11.177Z,99779.56
2022-11-21T02:00:38.322Z,99750.72
2022-11-21T02:06:00.574Z,99765.25
2022-11-21T02:11:46.654Z,99757.63
2022-11-21T02:17:10.073Z,99749.94
2022-11-21T02:22:46.409Z,99743.72
2022-11-21T02:28:11.956Z,99750.53
2022-11-21T02:33:33.700Z,99753.16
2022-11-21T02:38:55.526Z,99749.53
2022-11-21T02:44:34.116Z,99759.56
2022-11-21T02:50:19.773Z,99761.22
2022-11-21T02:55:42.263Z,99762.66
2022-11-21T03:01:04.175Z,99776.28
2022-11-21T03:06:26.088Z,99771.28
2022-11-21T03:11:47.871Z,99761.78
2022-11-21T03:17:09.684Z,99793.94
2022-11-21T03:22:31.461Z,99795.63
2022-11-21T03:27:54.330Z,99794.63
2022-11-21T03:33:16.141Z,99796.19
2022-11-21T03:38:37.957Z,99782.81
2022-11-21T03:44:04.577Z,99780.19
2022-11-21T03:49:26.484Z,99803.09
2022-11-21T03:54:48.481Z,99803.16
2022-11-21T04:00:10.980Z,99796.34
2022-11-21T04:05:32.763Z,99797.94
2022-11-21T04:10:54.824Z,99791.22
2022-11-21T04:16:16.634Z,99774.88
2022-11-21T04:21:38.413Z,99785.16
2022-11-21T04:27:00.187Z,99789.34
2022-11-21T04:32:21.964Z,99780.88
2022-11-21T04:37:43.847Z,99760.41
2022-11-21T04:43:06.126Z,99779.84
2022-11-21T04:48:27.933Z,99780.41
2022-11-21T04:53:49.702Z,99780.19
2022-11-21T04:59:11.474Z,99749.75
2022-11-21T05:04:33.310Z,99765.19
2022-11-21T05:09:55.063Z,99755.66
2022-11-21T05:15:20.404Z,99747.91
2022-11-21T05:20:46.099Z,99771.69
2022-11-21T05:26:07.944Z,99777.41
2022-11-21T05:31:29.860Z,99768.03
2022-11-21T05:36:54.360Z,99770.50
2022-11-21T05:42:16.136Z,99762.72
2022-11-21T05:47:37.891Z,99776.28
2022-11-21T05:53:06.802Z,99762.59
2022-11-21T05:58:28.925Z,99783.88
2022-11-21T06:03:50.754Z,99775.31
2022-11-21T06:09:12.546Z,99778.63
2022-11-21T06:14:34.324Z,99778.84
2022-11-21T06:19:56.162Z,99778.28
2022-11-21T06:25:17.964Z,99770.00
2022-11-21T06:30:39.764Z,99769.53
2022-11-21T06:36:06.224Z,99767.44
2022-11-21T06:41:28.213Z,99773.41
2022-11-21T06:46:51.672Z,99760.34
2022-11-21T06:52:13.711Z,99765.31
2022-11-21T06:57:35.491Z,99766.78
2022-11-21T07:03:03.464Z,99763.16
2022-11-21T07:08:25.413Z,99770.94
2022-11-21T07:13:47.265Z,99752.34
2022-11-21T07:19:09.104Z,99765.75
2022-11-21T07:24:30.925Z,99755.72
2022-11-21T07:29:52.752Z,99746.38
2022-11-21T07:35:14.632Z,99740.44
2022-11-21T07:40:36.399Z,99723.63
2022-11-21T07:45:58.183Z,99725.97
2022-11-21T07:51:20.067Z,99712.53
2022-11-21T07:56:41.862Z,99715.34
2022-11-21T08:02:04.168Z,99698.75
2022-11-21T08:07:26.053Z,99697.25
2022-11-21T08:12:47.889Z,99723.56
2022-11-21T08:18:16.150Z,99713.09
2022-11-21T08:23:37.923Z,99733.44
2022-11-21T08:29:00.551Z,99716.06
2022-11-21T08:34:22.526Z,99713.94
2022-11-21T08:39:44.370Z,99721.59
2022-11-21T08:45:06.538Z,99713.56
2022-11-21T08:50:28.437Z,99708.44
2022-11-21T08:55:50.290Z,99706.78
2022-11-21T09:01:12.107Z,99711.81
2022-11-21T09:06:34.224Z,99704.84
2022-11-21T09:11:56.047Z,99685.19
2022-11-21T09:17:17.833Z,99678.44
2022-11-21T09:22:39.636Z,99688.53
2022-11-21T09:28:06.635Z,99679.41
2022-11-21T09:33:28.544Z,99686.91
2022-11-21T09:38:52.302Z,99679.94
2022-11-21T09:44:39.088Z,99691.81
2022-11-21T09:50:05.268Z,99701.06
2022-11-21T09:55:33.028Z,99674.34
2022-11-21T10:00:55.076Z,99677.25
2022-11-21T10:06:16.843Z,99665.84
2022-11-21T10:12:05.195Z,99652.53
2022-11-21T10:17:40.156Z,99633.44
2022-11-21T10:23:20.276Z,99638.94
2022-11-21T10:28:56.912Z,99636.72
2022-11-21T10:34:27.439Z,99639.34
2022-11-21T10:39:51.403Z,99628.41
2022-11-21T10:45:14.423Z,99627.44
2022-11-21T10:51:03.852Z,99634.19
2022-11-21T10:56:27.358Z,99621.59
2022-11-21T11:01:58.423Z,99646.13
2022-11-21T11:07:24.979Z,99652.81
2022-11-21T11:12:49.677Z,99639.97
2022-11-21T11:18:14.575Z,99638.41
2022-11-21T11:23:36.375Z,99621.25
2022-11-21T11:29:09.276Z,99635.66
2022-11-21T11:35:00.038Z,99633.19
2022-11-21T11:40:37.079Z,99644.88
2022-11-21T11:46:14.100Z,99642.41
2022-11-21T11:51:47.142Z,99622.88
2022-11-21T11:57:10.481Z,99615.88
2022-11-21T12:02:47.482Z,99607.94
2022-11-21T12:08:42.335Z,99615.75
2022-11-21T12:14:33.397Z,99607.16
2022-11-21T12:19:58.395Z,99581.66
2022-11-21T12:25:27.258Z,99599.69
2022-11-21T12:31:24.121Z,99596.66
2022-11-21T12:36:57.070Z,99592.47
2022-11-21T12:42:39.795Z,99592.28
2022-11-21T12:48:32.728Z,99588.00
2022-11-21T12:54:15.971Z,99580.38
2022-11-21T12:59:58.952Z,99577.81
2022-11-21T13:05:27.366Z,99556.84
2022-11-21T13:11:16.654Z,99563.75
2022-11-21T13:16:42.140Z,99546.13
2022-11-21T13:22:03.940Z,99548.75
2022-11-21T13:27:38.791Z,99557.16
2022-11-21T13:33:01.278Z,99547.94
2022-11-21T13:38:23.148Z,99541.06
2022-11-21T13:43:44.958Z,99552.81
2022-11-21T13:49:18.341Z,99541.34
2022-11-21T13:55:17.481Z,99544.03
2022-11-21T14:01:05.430Z,99532.28
2022-11-21T14:06:35.273Z,99543.16
2022-11-21T14:12:07.216Z,99533.53
2022-11-21T14:17:35.070Z,99543.03
2022-11-21T14:23:04.051Z,99552.19
2022-11-21T14:28:35.495Z,99531.91
2022-11-21T14:33:57.325Z,99544.53
2022-11-21T14:39:36.580Z,99524.31
2022-11-21T14:45:21.097Z,99544.66
2022-11-21T14:50:42.946Z,99544.63
2022-11-21T14:56:04.760Z,99549.00
2022-11-21T15:01:34.268Z,99547.28
2022-11-21T15:06:56.244Z,99552.34
2022-11-21T15:12:35.396Z,99548.13
2022-11-21T15:23:42.743Z,99546.50
2022-11-21T15:29:18.795Z,99541.41
2022-11-21T15:34:40.591Z,99537.31
2022-11-21T15:40:02.443Z,99548.34
2022-11-21T15:45:27.101Z,99555.09
2022-11-21T15:50:48.900Z,99549.16
2022-11-21T15:56:18.325Z,99554.25
2022-11-21T16:01:43.280Z,99554.25
2022-11-21T16:07:05.158Z,99543.25
2022-11-21T16:12:27.103Z,99547.56
2022-11-21T16:17:48.970Z,99543.34
2022-11-21T16:23:11.891Z,99540.75
2022-11-21T16:28:34.375Z,99536.53
2022-11-21T16:33:56.964Z,99550.91
2022-11-21T16:39:18.918Z,99551.78
2022-11-21T16:44:40.799Z,99556.88
2022-11-21T16:50:04.929Z,99540.78
2022-11-21T16:55:26.829Z,99528.09
2022-11-21T17:00:48.754Z,99545.00
2022-11-21T17:06:12.352Z,99537.41
2022-11-21T17:11:34.211Z,99536.56
2022-11-21T17:16:56.101Z,99538.22
2022-11-21T17:22:21.624Z,99535.66
2022-11-21T17:27:47.165Z,99522.97
2022-11-21T17:33:09.018Z,99525.47
2022-11-21T17:38:30.940Z,99530.47
2022-11-21T17:43:57.015Z,99518.63
2022-11-21T17:49:18.862Z,99527.91
2022-11-21T17:54:40.722Z,99528.75
2022-11-21T18:00:04.020Z,99527.06
2022-11-21T18:05:25.874Z,99533.03
2022-11-21T18:10:52.749Z,99516.88
2022-11-21T18:16:20.574Z,99521.97
2022-11-21T18:21:42.453Z,99523.69
2022-11-21T18:27:04.298Z,99510.97
2022-11-21T18:32:26.840Z,99526.94
2022-11-21T18:37:49.092Z,99521.84
2022-11-21T18:43:11.206Z,99526.09
2022-11-21T18:49:00.135Z,99519.34
2022-11-21T18:54:15.240Z,99527.75
2022-11-21T18:59:37.105Z,99516.78
2022-11-21T19:04:58.942Z,99532.91
2022-11-21T19:10:41.885Z,99531.13
2022-11-21T19:16:04.029Z,99521.81
2022-11-21T19:21:26.000Z,99542.13
2022-11-21T19:26:47.803Z,99540.50
2022-11-21T19:32:09.591Z,99545.53
2022-11-21T19:37:31.453Z,99541.16
2022-11-21T19:42:53.255Z,99543.72
2022-11-21T19:48:15.095Z,99548.03
2022-11-21T19:53:38.644Z,99544.56
2022-11-21T19:59:00.518Z,99543.72
2022-11-21T20:04:22.656Z,99547.91
2022-11-21T20:09:44.461Z,99548.03
2022-11-21T20:15:06.886Z,99563.19
2022-11-21T20:20:28.710Z,99571.66
2022-11-21T20:25:51.454Z,99577.59
2022-11-21T20:31:16.122Z,99567.47
2022-11-21T20:36:38.535Z,99581.03
2022-11-21T20:42:01.329Z,99575.09
2022-11-21T20:47:23.342Z,99575.09
2022-11-21T20:58:29.335Z,99568.41
2022-11-21T21:03:51.141Z,99554.88
2022-11-21T21:09:12.986Z,99577.72
2022-11-21T21:14:34.765Z,99582.03
2022-11-21T21:19:56.613Z,99574.38
2022-11-21T21:25:18.466Z,99589.66
2022-11-21T21:30:40.302Z,99576.94
2022-11-21T21:36:07.347Z,99571.84
2022-11-21T21:41:30.960Z,99575.22
2022-11-21T21:46:52.812Z,99587.06
2022-11-21T21:52:15.721Z,99595.53
2022-11-21T21:57:43.019Z,99589.63
2022-11-21T22:03:06.840Z,99592.91
2022-11-21T22:08:30.506Z,99600.56
2022-11-21T22:14:00.617Z,99585.34
2022-11-21T22:19:22.403Z,99591.28
2022-11-21T22:24:44.488Z,99592.16
2022-11-21T22:30:06.950Z,99585.41
2022-11-21T22:35:31.859Z,99579.50
2022-11-21T22:40:53.772Z,99573.53
2022-11-21T22:46:15.607Z,99591.31
2022-11-21T22:51:37.463Z,99603.19
2022-11-21T22:56:59.266Z,99594.69
2022-11-21T23:02:21.136Z,99601.41
2022-11-21T23:07:43.031Z,99603.09
2022-11-21T23:13:04.838Z,99598.88
2022-11-21T23:18:27.074Z,99600.66
2022-11-21T23:23:48.981Z,99608.22
2022-11-21T23:29:10.771Z,99603.13
2022-11-21T23:34:32.594Z,99607.44
2022-11-21T23:39:54.528Z,99603.13
2022-11-21T23:45:16.464Z,99581.13
2022-11-21T23:50:38.309Z,99589.53
2022-11-21T23:56:00.121Z,99594.69
